Tounan Maru — JD3061 — position and weather

sailwx.info

Track history (hours):
 
Tides and Currents Weather Stations Pressure Air Temp Water Temp Dewpoint Dewpoint Depression Visibility Wind Speed Wind Dir Waves Ship Positions

Tounan Maru

Last reported at 2017-Nov-04 13:33 UTC. Time now 2017-Nov-21 01:03 UTC.
Position N 34°57' E 139°27'.
Warning: this ship's position is 16 days out of date.

Length 72 m; draft 4.4 m.

Type: Tanker. MMSI: 431001357.

Date/timePositionNaut miles runAvg speedWind from/ knotsBaromVisibWave heightAir tempDewpointWater temp
2017-Nov-04 13:33N 34°57' E 139°27'411.9
2017-Nov-04 13:12N 34°59' E 139°31'312.9
2017-Nov-04 12:56N 35°01' E 139°34'613.6
2017-Nov-04 12:30N 35°05' E 139°40'714.4
2017-Nov-04 12:01N 35°11' E 139°45'612.4
2017-Nov-04 11:31N 35°17' E 139°45'612.2
2017-Nov-04 11:01N 35°22' E 139°42'713.5
2017-Nov-04 10:30N 35°27' E 139°48'15 2.3
2017-Nov-04 04:07N 35°33' E 140°05'6 0.1
2017-Nov-02 09:17N 35°28' E 139°60'1 0.2
2017-Nov-02 05:39N 35°29' E 139°59'210.0
2017-Nov-02 05:24N 35°29' E 139°56'512.2
2017-Nov-02 05:00N 35°28' E 139°50'612.5
2017-Nov-02 04:30N 35°26' E 139°43'4 7.6
2017-Nov-02 04:00N 35°29' E 139°40'0 0.0
2017-Nov-02 03:30N 35°29' E 139°40'0 0.0
2017-Nov-02 03:00N 35°29' E 139°40'0 0.0
2017-Nov-02 02:30N 35°29' E 139°40'0 0.0
2017-Nov-02 02:00N 35°29' E 139°40'0 0.0
2017-Nov-02 01:30N 35°29' E 139°40'0 0.0
2017-Nov-02 01:00N 35°29' E 139°40'0 0.0
2017-Nov-02 00:30N 35°29' E 139°40'0 0.0
2017-Nov-02 00:00N 35°29' E 139°40'0 0.0
2017-Nov-01 23:30N 35°29' E 139°40'0 0.0
2017-Nov-01 23:00N 35°29' E 139°40'2 3.7
2017-Nov-01 22:30N 35°27' E 139°41'2 4.3
2017-Nov-01 22:00N 35°27' E 139°44'1 2.0
2017-Nov-01 21:30N 35°28' E 139°44'0 0.0
2017-Nov-01 21:00N 35°28' E 139°44'0 0.0
2017-Nov-01 20:30N 35°28' E 139°44'0 0.0
2017-Nov-01 20:00N 35°28' E 139°44'0 0.0
2017-Nov-01 19:30N 35°28' E 139°44'0 0.1
2017-Nov-01 19:00N 35°28' E 139°44'0 0.0
2017-Nov-01 18:30N 35°28' E 139°44'37 1.7
2017-Oct-31 20:11N 34°51' E 139°45'7 0.2
2017-Oct-30 14:18N 34°50' E 139°37'  
2017-Oct-27 15:18N 34°53' E 140°01'10 0.4
2017-Oct-26 11:17N 34°52' E 139°48'611.9
2017-Oct-26 10:47N 34°57' E 139°44'311.1
2017-Oct-26 10:30N 34°60' E 139°43'612.6
2017-Oct-26 10:00N 35°06' E 139°45'713.9
2017-Oct-26 09:30N 35°13' E 139°46'613.0
2017-Oct-26 09:00N 35°19' E 139°43'612.0
2017-Oct-26 08:30N 35°25' E 139°44'713.4
2017-Oct-26 08:00N 35°29' E 139°50'  
Track history (hours):
 
Tides and Currents Weather Stations Pressure Air Temp Water Temp Dewpoint Dewpoint Depression Visibility Wind Speed Wind Dir Waves Ship Positions

Tounan Maru

Last reported at 2017-Nov-04 13:33 UTC. Time now 2017-Nov-21 01:03 UTC.
Position N 34°57' E 139°27'.
Warning: this ship's position is 16 days out of date.

Length 72 m; draft 4.4 m.

Type: Tanker. MMSI: 431001357.

Date/timePositionNaut miles runAvg speedWind from/ knotsBaromVisibWave heightAir tempDewpointWater temp
2017-Nov-04 13:33N 34°57' E 139°27'411.9
2017-Nov-04 13:12N 34°59' E 139°31'312.9
2017-Nov-04 12:56N 35°01' E 139°34'613.6
2017-Nov-04 12:30N 35°05' E 139°40'714.4
2017-Nov-04 12:01N 35°11' E 139°45'612.4
2017-Nov-04 11:31N 35°17' E 139°45'612.2
2017-Nov-04 11:01N 35°22' E 139°42'713.5
2017-Nov-04 10:30N 35°27' E 139°48'15 2.3
2017-Nov-04 04:07N 35°33' E 140°05'6 0.1
2017-Nov-02 09:17N 35°28' E 139°60'1 0.2
2017-Nov-02 05:39N 35°29' E 139°59'210.0
2017-Nov-02 05:24N 35°29' E 139°56'512.2
2017-Nov-02 05:00N 35°28' E 139°50'612.5
2017-Nov-02 04:30N 35°26' E 139°43'4 7.6
2017-Nov-02 04:00N 35°29' E 139°40'0 0.0
2017-Nov-02 03:30N 35°29' E 139°40'0 0.0
2017-Nov-02 03:00N 35°29' E 139°40'0 0.0
2017-Nov-02 02:30N 35°29' E 139°40'0 0.0
2017-Nov-02 02:00N 35°29' E 139°40'0 0.0
2017-Nov-02 01:30N 35°29' E 139°40'0 0.0
2017-Nov-02 01:00N 35°29' E 139°40'0 0.0
2017-Nov-02 00:30N 35°29' E 139°40'0 0.0
2017-Nov-02 00:00N 35°29' E 139°40'0 0.0
2017-Nov-01 23:30N 35°29' E 139°40'0 0.0
2017-Nov-01 23:00N 35°29' E 139°40'2 3.7
2017-Nov-01 22:30N 35°27' E 139°41'2 4.3
2017-Nov-01 22:00N 35°27' E 139°44'1 2.0
2017-Nov-01 21:30N 35°28' E 139°44'0 0.0
2017-Nov-01 21:00N 35°28' E 139°44'0 0.0
2017-Nov-01 20:30N 35°28' E 139°44'0 0.0
2017-Nov-01 20:00N 35°28' E 139°44'0 0.0
2017-Nov-01 19:30N 35°28' E 139°44'0 0.1
2017-Nov-01 19:00N 35°28' E 139°44'0 0.0
2017-Nov-01 18:30N 35°28' E 139°44'37 1.7
2017-Oct-31 20:11N 34°51' E 139°45'7 0.2
2017-Oct-30 14:18N 34°50' E 139°37'  
2017-Oct-27 15:18N 34°53' E 140°01'10 0.4
2017-Oct-26 11:17N 34°52' E 139°48'611.9
2017-Oct-26 10:47N 34°57' E 139°44'311.1
2017-Oct-26 10:30N 34°60' E 139°43'612.6
2017-Oct-26 10:00N 35°06' E 139°45'713.9
2017-Oct-26 09:30N 35°13' E 139°46'613.0
2017-Oct-26 09:00N 35°19' E 139°43'612.0
2017-Oct-26 08:30N 35°25' E 139°44'713.4
2017-Oct-26 08:00N 35°29' E 139°50'  

Dump ship's entire track history